Terminal Aerodrome Forecast
Issued by NWS Boston, MA

Home | Current Version | Previous Version | Text Only | Print | Product List | Glossary On
Versions: 1 2 3 4 5 6 7 8 9 10 11 12 13 14 15 16 17 18 19 20 21 22 23 24 25 26 27 28 29 30 31 32 33 34 35 36 37 38 39 40 41 42 43 44 45 46 47 48 49
000
FTUS41 KBOX 271732
TAFBOS
TAF
KBOS 271732Z 2718/2824 35020G40KT 1/4SM +SN BLSN OVC005
     FM272200 34027KT 3/4SM -SN BLSN OVC008
     FM280100 33021G33KT 3SM -SN BLSN OVC010
     FM280500 33014G28KT P6SM OVC010
     FM281100 32012G23KT P6SM OVC035=

USA.gov is the U.S. government's official web portal to all federal, state and local government web resources and services.